createdAt,value
2023-03-03T00:01:21.819Z,25.33
2023-03-03T00:03:48.608Z,25.87
2023-03-03T00:06:15.511Z,28.30
2023-03-03T00:08:43.024Z,26.07
2023-03-03T00:11:10.718Z,29.03
2023-03-03T00:13:51.172Z,30.30
2023-03-03T00:16:31.163Z,28.60
2023-03-03T00:18:58.648Z,27.27
2023-03-03T00:21:31.489Z,29.93
2023-03-03T00:24:23.210Z,32.67
2023-03-03T00:26:56.894Z,30.50
2023-03-03T00:29:51.071Z,26.60
2023-03-03T00:32:23.917Z,26.80
2023-03-03T00:34:53.823Z,27.23
2023-03-03T00:37:34.754Z,28.23
2023-03-03T00:40:24.055Z,30.10
2023-03-03T00:42:55.655Z,27.77
2023-03-03T00:45:38.242Z,32.03
2023-03-03T00:48:24.285Z,33.80
2023-03-03T00:50:54.320Z,28.93
2023-03-03T00:53:24.235Z,28.50
2023-03-03T00:55:52.817Z,29.50
2023-03-03T00:58:21.992Z,33.53
2023-03-03T01:00:56.539Z,28.80
2023-03-03T01:03:26.587Z,26.47
2023-03-03T01:05:54.490Z,28.63
2023-03-03T01:08:22.746Z,33.13
2023-03-03T01:10:54.450Z,27.83
2023-03-03T01:13:26.225Z,27.87
2023-03-03T01:15:54.098Z,31.53
2023-03-03T01:18:21.462Z,32.53
2023-03-03T01:20:48.298Z,34.70
2023-03-03T01:23:15.126Z,37.37
2023-03-03T01:25:42.139Z,33.73
2023-03-03T01:28:09.446Z,30.20
2023-03-03T01:30:36.495Z,35.20
2023-03-03T01:33:03.654Z,33.77
2023-03-03T01:35:30.912Z,35.80
2023-03-03T01:37:59.409Z,39.47
2023-03-03T01:40:30.782Z,35.63
2023-03-03T01:43:00.965Z,35.73
2023-03-03T01:45:53.286Z,37.57
2023-03-03T01:48:34.617Z,38.93
2023-03-03T01:51:05.259Z,37.17
2023-03-03T01:53:51.218Z,40.13
2023-03-03T01:56:18.656Z,42.60
2023-03-03T01:59:23.404Z,39.30
2023-03-03T02:01:50.652Z,40.37
2023-03-03T02:04:19.261Z,40.10
2023-03-03T02:06:55.501Z,41.97
2023-03-03T02:09:35.549Z,44.87
2023-03-03T02:12:08.700Z,50.13
2023-03-03T02:14:35.640Z,50.37
2023-03-03T02:17:02.739Z,50.83
2023-03-03T02:19:51.770Z,51.50
2023-03-03T02:22:29.958Z,62.53
2023-03-03T02:25:06.342Z,56.63
2023-03-03T02:27:34.470Z,59.17
2023-03-03T02:30:16.358Z,61.07
2023-03-03T02:32:43.304Z,50.67
2023-03-03T02:35:29.659Z,58.47
2023-03-03T02:38:30.950Z,57.13
2023-03-03T02:44:52.778Z,56.43
2023-03-03T02:47:20.192Z,52.73
2023-03-03T02:49:54.503Z,60.50
2023-03-03T02:52:30.225Z,51.57
2023-03-03T02:55:46.641Z,61.10
2023-03-03T02:58:21.622Z,67.13
2023-03-03T03:00:55.697Z,62.23
2023-03-03T03:06:36.561Z,61.60
2023-03-03T03:09:16.946Z,65.63
2023-03-03T03:11:47.532Z,75.43
2023-03-03T03:14:19.592Z,59.83
2023-03-03T03:16:49.326Z,67.07
2023-03-03T03:19:18.639Z,62.20
2023-03-03T03:21:48.459Z,57.83
2023-03-03T03:24:16.905Z,67.07
2023-03-03T03:26:43.948Z,67.93
2023-03-03T03:29:11.135Z,67.23
2023-03-03T03:31:38.308Z,63.87
2023-03-03T03:34:05.268Z,74.83
2023-03-03T03:36:32.074Z,67.17
2023-03-03T03:38:58.910Z,63.70
2023-03-03T03:41:26.774Z,59.93
2023-03-03T03:43:53.501Z,68.73
2023-03-03T03:46:20.256Z,72.97
2023-03-03T03:48:47.094Z,71.73
2023-03-03T03:51:14.066Z,67.90
2023-03-03T03:53:41.332Z,80.00
2023-03-03T03:56:09.364Z,62.00
2023-03-03T03:58:36.277Z,73.73
2023-03-03T04:01:06.986Z,77.23
2023-03-03T04:03:34.840Z,68.37
2023-03-03T04:06:01.602Z,68.50
2023-03-03T04:08:28.548Z,75.50
2023-03-03T04:10:55.778Z,67.10
2023-03-03T04:13:23.242Z,73.07
2023-03-03T04:15:49.986Z,71.77
2023-03-03T04:18:16.771Z,75.77
2023-03-03T04:20:43.593Z,79.60
2023-03-03T04:23:10.688Z,77.40
2023-03-03T04:25:37.456Z,78.10
2023-03-03T04:28:05.645Z,82.60
2023-03-03T04:30:33.011Z,73.97
2023-03-03T04:32:59.778Z,81.30
2023-03-03T04:35:26.594Z,74.97
2023-03-03T04:37:54.156Z,76.17
2023-03-03T04:40:21.086Z,85.73
2023-03-03T04:42:48.318Z,76.30
2023-03-03T04:45:15.032Z,71.07
2023-03-03T04:47:41.909Z,81.93
2023-03-03T04:50:10.721Z,68.83
2023-03-03T04:52:38.032Z,76.37
2023-03-03T04:55:05.488Z,84.07
2023-03-03T04:57:32.288Z,77.13
2023-03-03T04:59:59.082Z,85.83
2023-03-03T05:07:03.491Z,72.77
2023-03-03T05:10:36.885Z,76.13
2023-03-03T05:13:03.796Z,82.73
2023-03-03T05:15:31.094Z,97.90
2023-03-03T05:17:58.430Z,82.20
2023-03-03T05:20:26.409Z,74.90
2023-03-03T05:23:32.818Z,85.80
2023-03-03T05:26:26.577Z,79.03
2023-03-03T05:43:54.733Z,66.33
2023-03-03T05:46:29.464Z,70.17
2023-03-03T05:48:56.407Z,67.00
2023-03-03T05:51:23.374Z,64.53
2023-03-03T05:53:50.306Z,76.27
2023-03-03T05:56:17.244Z,77.30
2023-03-03T05:59:04.511Z,72.00
2023-03-03T06:01:35.057Z,73.10
2023-03-03T06:04:06.160Z,61.93
2023-03-03T06:06:37.157Z,71.70
2023-03-03T06:09:04.145Z,65.17
2023-03-03T06:11:43.811Z,58.53
2023-03-03T06:14:15.556Z,57.60
2023-03-03T06:20:51.989Z,62.70
2023-03-03T06:23:22.172Z,66.77
2023-03-03T06:25:58.734Z,58.77
2023-03-03T06:28:41.858Z,71.20
2023-03-03T06:31:08.715Z,72.63
2023-03-03T06:33:50.038Z,71.20
2023-03-03T06:36:18.077Z,70.47
2023-03-03T06:38:56.114Z,69.20
2023-03-03T06:41:33.424Z,71.43
2023-03-03T06:44:32.050Z,64.73
2023-03-03T06:54:57.892Z,62.23
2023-03-03T06:58:44.728Z,73.03
2023-03-03T07:01:22.560Z,70.00
2023-03-03T07:03:49.556Z,75.10
2023-03-03T07:06:38.183Z,59.23
2023-03-03T07:09:17.339Z,63.53
2023-03-03T07:11:46.487Z,62.70
2023-03-03T07:14:19.218Z,65.87
2023-03-03T07:16:46.489Z,65.23
2023-03-03T07:19:32.951Z,62.67
2023-03-03T07:22:27.857Z,62.07
2023-03-03T07:25:01.936Z,67.47
2023-03-03T07:27:31.377Z,59.80
2023-03-03T07:30:24.850Z,65.90
2023-03-03T07:32:56.514Z,66.87
2023-03-03T07:35:42.955Z,65.17
2023-03-03T07:38:46.215Z,66.63
2023-03-03T07:41:20.763Z,77.43
2023-03-03T07:44:05.541Z,72.60
2023-03-03T07:46:44.288Z,78.70
2023-03-03T07:49:37.683Z,73.17
2023-03-03T07:54:45.914Z,71.17
2023-03-03T07:57:24.896Z,63.13
2023-03-03T08:00:16.631Z,60.03
2023-03-03T08:03:03.236Z,67.43
2023-03-03T08:05:30.013Z,72.60
2023-03-03T08:08:31.109Z,57.53
2023-03-03T08:11:00.782Z,69.97
2023-03-03T08:13:33.067Z,65.50
2023-03-03T08:16:04.719Z,74.03
2023-03-03T08:18:47.684Z,80.50
2023-03-03T08:21:25.667Z,65.47
2023-03-03T08:23:53.706Z,76.00
2023-03-03T08:26:22.573Z,61.00
2023-03-03T08:28:50.640Z,72.07
2023-03-03T08:31:28.027Z,66.40
2023-03-03T08:34:01.590Z,59.97
2023-03-03T08:36:28.361Z,62.63
2023-03-03T08:38:55.500Z,70.17
2023-03-03T08:41:22.212Z,55.33
2023-03-03T08:43:48.985Z,56.53
2023-03-03T08:46:16.257Z,61.03
2023-03-03T08:48:43.063Z,59.33
2023-03-03T08:51:09.812Z,63.20
2023-03-03T08:53:38.144Z,66.67
2023-03-03T08:56:06.809Z,62.50
2023-03-03T08:58:35.993Z,68.60
2023-03-03T09:01:04.276Z,70.57
2023-03-03T09:03:31.511Z,64.03
2023-03-03T09:05:58.376Z,70.33
2023-03-03T09:08:25.147Z,59.97
2023-03-03T09:10:51.888Z,65.13
2023-03-03T09:13:19.973Z,64.77
2023-03-03T09:15:48.970Z,65.33
2023-03-03T09:18:22.768Z,52.67
2023-03-03T09:20:54.450Z,60.37
2023-03-03T09:23:24.108Z,53.17
2023-03-03T09:25:52.668Z,49.93
2023-03-03T09:28:30.464Z,56.90
2023-03-03T09:31:02.177Z,52.73
2023-03-03T09:33:42.897Z,55.57
2023-03-03T09:36:23.071Z,53.07
2023-03-03T09:38:50.223Z,50.13
2023-03-03T09:41:43.470Z,51.03
2023-03-03T09:45:06.887Z,45.73
2023-03-03T09:48:08.686Z,50.40
2023-03-03T09:50:50.726Z,46.23
2023-03-03T09:53:42.738Z,52.13
2023-03-03T09:56:19.352Z,43.30
2023-03-03T09:59:23.959Z,45.00
2023-03-03T10:01:54.117Z,50.27
2023-03-03T10:04:43.757Z,45.23
2023-03-03T10:07:54.279Z,44.67
2023-03-03T10:10:53.511Z,44.37
2023-03-03T10:14:03.796Z,47.53
2023-03-03T10:17:04.086Z,47.10
2023-03-03T10:19:54.037Z,48.30
2023-03-03T10:22:43.491Z,47.77
2023-03-03T10:25:53.879Z,51.03
2023-03-03T10:28:58.387Z,46.77
2023-03-03T10:32:12.664Z,54.43
2023-03-03T10:35:16.376Z,52.63
2023-03-03T10:38:14.618Z,51.07
2023-03-03T10:41:17.501Z,57.50
2023-03-03T10:44:25.682Z,54.70
2023-03-03T10:47:23.539Z,52.63
2023-03-03T10:50:11.282Z,55.33
2023-03-03T10:53:09.124Z,53.03
2023-03-03T10:56:35.381Z,52.10
2023-03-03T10:59:39.812Z,58.67
2023-03-03T11:02:22.877Z,65.60
2023-03-03T11:05:11.161Z,61.07
2023-03-03T11:07:54.895Z,62.13
2023-03-03T11:11:07.440Z,60.53
2023-03-03T11:13:49.468Z,66.17
2023-03-03T11:16:48.808Z,60.23
2023-03-03T11:19:44.125Z,62.50
2023-03-03T11:22:36.766Z,67.00
2023-03-03T11:25:18.177Z,75.73
2023-03-03T11:28:20.934Z,74.70
2023-03-03T11:31:13.987Z,62.23
2023-03-03T11:34:01.259Z,72.53
2023-03-03T11:36:36.957Z,65.33
2023-03-03T11:39:13.407Z,67.00
2023-03-03T11:41:52.228Z,63.47
2023-03-03T11:44:33.188Z,66.37
2023-03-03T11:47:05.526Z,64.67
2023-03-03T11:49:52.199Z,71.07
2023-03-03T11:52:53.207Z,71.07
2023-03-03T11:55:42.069Z,69.73
2023-03-03T11:58:20.442Z,65.47
2023-03-03T12:01:14.913Z,70.07
2023-03-03T12:04:00.716Z,75.07
2023-03-03T12:07:12.998Z,69.20
2023-03-03T12:10:19.056Z,77.77
2023-03-03T12:13:03.830Z,91.27
2023-03-03T12:16:04.597Z,82.33
2023-03-03T12:18:54.834Z,85.20
2023-03-03T12:22:05.933Z,82.30
2023-03-03T12:24:54.046Z,78.63
2023-03-03T12:27:43.045Z,80.93
2023-03-03T12:30:53.482Z,91.60
2023-03-03T12:34:26.228Z,89.60
2023-03-03T12:37:14.603Z,85.70
2023-03-03T12:39:56.710Z,85.83
2023-03-03T12:43:23.270Z,82.73
2023-03-03T12:46:03.851Z,84.17
2023-03-03T12:48:45.651Z,89.70
2023-03-03T12:51:48.212Z,91.33
2023-03-03T12:54:42.787Z,87.30
2023-03-03T12:57:38.229Z,83.37
2023-03-03T13:00:11.095Z,86.67
2023-03-03T13:02:49.923Z,84.33
2023-03-03T13:05:39.256Z,83.80
2023-03-03T13:08:31.865Z,85.30
2023-03-03T13:11:28.571Z,80.90
2023-03-03T13:14:23.019Z,79.23
2023-03-03T13:17:17.420Z,83.17
2023-03-03T13:20:11.922Z,82.00
2023-03-03T13:22:59.189Z,81.57
2023-03-03T13:25:59.212Z,83.07
2023-03-03T13:29:07.611Z,80.93
2023-03-03T13:31:40.668Z,76.13
2023-03-03T13:34:39.568Z,77.50
2023-03-03T13:37:15.511Z,82.77
2023-03-03T13:40:17.507Z,77.00
2023-03-03T13:42:50.687Z,82.93
2023-03-03T13:45:50.280Z,86.50
2023-03-03T13:48:38.577Z,90.60
2023-03-03T13:51:31.765Z,74.67
2023-03-03T13:54:35.338Z,79.17
2023-03-03T13:57:43.941Z,80.40
2023-03-03T14:00:27.925Z,82.50
2023-03-03T14:03:03.932Z,84.23
2023-03-03T14:05:39.226Z,82.13
2023-03-03T14:08:18.422Z,77.77
2023-03-03T14:11:10.741Z,88.40
2023-03-03T14:13:58.721Z,81.63
2023-03-03T14:16:57.441Z,87.63
2023-03-03T14:19:36.593Z,81.50
2023-03-03T14:22:24.030Z,85.10
2023-03-03T14:25:06.245Z,85.73
2023-03-03T14:27:47.680Z,84.17
2023-03-03T14:30:26.201Z,82.17
2023-03-03T14:33:09.771Z,80.23
2023-03-03T14:35:50.727Z,83.37
2023-03-03T14:38:35.965Z,87.93
2023-03-03T14:41:39.329Z,84.83
2023-03-03T14:44:36.442Z,91.20
2023-03-03T14:47:09.203Z,91.10
2023-03-03T14:49:38.552Z,82.63
2023-03-03T14:52:17.511Z,80.93
2023-03-03T14:54:54.526Z,80.63
2023-03-03T14:57:54.548Z,86.60
2023-03-03T15:00:24.144Z,87.37
2023-03-03T15:03:19.833Z,80.77
2023-03-03T15:05:58.059Z,73.07
2023-03-03T15:08:35.957Z,78.23
2023-03-03T15:11:25.551Z,78.57
2023-03-03T15:13:52.595Z,79.07
2023-03-03T15:16:30.101Z,71.90
2023-03-03T15:20:14.941Z,66.63
2023-03-03T15:23:19.580Z,65.30
2023-03-03T15:25:59.656Z,61.13
2023-03-03T15:28:55.726Z,54.80
2023-03-03T15:31:45.418Z,48.57
2023-03-03T15:34:44.001Z,43.37
2023-03-03T15:37:35.067Z,42.63
2023-03-03T15:40:28.808Z,43.93
2023-03-03T15:43:05.736Z,39.23
2023-03-03T15:45:47.622Z,40.73
2023-03-03T15:48:42.140Z,40.47
2023-03-03T15:52:02.482Z,37.37
2023-03-03T15:54:50.895Z,40.27
2023-03-03T15:57:52.635Z,45.43
2023-03-03T16:01:12.936Z,37.90
2023-03-03T16:03:47.178Z,43.47
2023-03-03T16:06:37.284Z,47.17
2023-03-03T16:09:57.589Z,52.70
2023-03-03T16:12:53.188Z,61.73
2023-03-03T16:15:34.804Z,56.47
2023-03-03T16:18:10.635Z,57.53
2023-03-03T16:20:53.878Z,55.50
2023-03-03T16:23:47.173Z,59.20
2023-03-03T16:26:32.503Z,58.27
2023-03-03T16:29:49.774Z,57.67
2023-03-03T16:32:46.364Z,66.30
2023-03-03T16:35:31.837Z,59.90
2023-03-03T16:38:06.460Z,58.90
2023-03-03T16:40:53.985Z,58.33
2023-03-03T16:43:45.313Z,62.20
2023-03-03T16:46:28.746Z,62.70
2023-03-03T16:49:27.123Z,55.00
2023-03-03T16:52:15.312Z,60.47
2023-03-03T16:54:54.981Z,64.27
2023-03-03T16:57:45.661Z,56.53
2023-03-03T17:00:20.933Z,64.73
2023-03-03T17:02:47.598Z,66.43
2023-03-03T17:06:00.457Z,69.33
2023-03-03T17:08:39.054Z,60.27
2023-03-03T17:11:23.285Z,61.77
2023-03-03T17:14:17.534Z,60.30
2023-03-03T17:17:12.139Z,51.97
2023-03-03T17:20:11.816Z,52.57
2023-03-03T17:23:00.117Z,54.73
2023-03-03T17:26:09.879Z,53.83
2023-03-03T17:29:08.875Z,51.13
2023-03-03T17:32:12.160Z,54.10
2023-03-03T17:35:07.048Z,59.67
2023-03-03T17:38:30.600Z,64.30
2023-03-03T17:41:11.014Z,61.20
2023-03-03T17:44:23.670Z,52.93
2023-03-03T17:47:00.333Z,52.97
2023-03-03T17:49:58.340Z,60.10
2023-03-03T17:52:43.109Z,53.77
2023-03-03T17:55:55.905Z,51.07
2023-03-03T18:00:56.247Z,48.63
2023-03-03T18:02:38.499Z,49.20
2023-03-03T18:05:31.157Z,50.60
2023-03-03T18:08:08.933Z,48.03
2023-03-03T18:11:18.988Z,48.77
2023-03-03T18:14:01.359Z,57.07
2023-03-03T18:16:39.771Z,56.30
2023-03-03T18:19:26.982Z,48.00
2023-03-03T18:22:13.966Z,51.83
2023-03-03T18:24:49.805Z,51.00
2023-03-03T18:27:25.387Z,56.03
2023-03-03T18:30:10.584Z,48.03
2023-03-03T18:33:08.605Z,44.53
2023-03-03T18:35:45.397Z,47.60
2023-03-03T18:38:29.993Z,42.23
2023-03-03T18:41:13.101Z,42.23
2023-03-03T18:46:56.758Z,39.33
2023-03-03T18:50:33.927Z,34.70
2023-03-03T18:53:15.750Z,45.73
2023-03-03T18:55:50.283Z,51.27
2023-03-03T18:58:17.005Z,47.83
2023-03-03T19:00:54.479Z,43.50
2023-03-03T19:03:45.429Z,41.60
2023-03-03T19:06:28.405Z,41.07
2023-03-03T19:08:58.415Z,45.57
2023-03-03T19:11:44.839Z,38.30
2023-03-03T19:14:27.771Z,41.20
2023-03-03T19:16:57.848Z,50.50
2023-03-03T19:19:34.935Z,46.90
2023-03-03T19:22:29.960Z,48.00
2023-03-03T19:25:08.656Z,45.07
2023-03-03T19:28:12.938Z,47.67
2023-03-03T19:30:45.819Z,42.23
2023-03-03T19:33:31.714Z,46.83
2023-03-03T19:36:44.860Z,47.37
2023-03-03T19:39:47.759Z,43.53
2023-03-03T19:42:29.050Z,50.80
2023-03-03T19:45:19.113Z,49.77
2023-03-03T19:48:22.751Z,48.53
2023-03-03T19:51:41.874Z,47.67
2023-03-03T19:54:38.445Z,55.40
2023-03-03T20:06:36.415Z,52.60
2023-03-03T21:08:54.171Z,57.07
2023-03-03T21:11:59.722Z,56.27
2023-03-03T21:15:50.359Z,59.53
2023-03-03T21:19:33.966Z,60.37
2023-03-03T21:22:12.134Z,59.87
2023-03-03T21:25:35.341Z,68.13
2023-03-03T21:28:45.375Z,67.93
2023-03-03T21:31:54.650Z,57.00
2023-03-03T21:34:47.149Z,58.97
2023-03-03T21:37:47.463Z,53.33
2023-03-03T21:40:27.470Z,64.53
2023-03-03T21:43:58.350Z,60.23
2023-03-03T21:46:46.814Z,59.63
2023-03-03T21:49:17.203Z,58.27
2023-03-03T21:51:59.846Z,58.50
2023-03-03T21:54:32.774Z,57.70
2023-03-03T21:57:01.971Z,99.57
2023-03-03T21:59:29.004Z,69.13
2023-03-03T22:02:10.552Z,106.17
2023-03-03T22:07:41.182Z,50.10
2023-03-03T22:10:18.666Z,52.17
2023-03-03T22:13:15.854Z,51.67
2023-03-03T22:15:45.202Z,58.60
2023-03-03T22:21:21.385Z,54.00
2023-03-03T22:23:48.368Z,50.57
2023-03-03T22:26:15.327Z,50.80
2023-03-03T22:28:44.260Z,65.47
2023-03-03T22:31:11.333Z,59.07
2023-03-03T22:33:38.098Z,77.67
2023-03-03T22:36:05.308Z,60.20
2023-03-03T22:38:32.170Z,53.10
2023-03-03T22:40:59.495Z,51.33
2023-03-03T22:43:27.466Z,55.60
2023-03-03T22:45:54.371Z,52.73
2023-03-03T22:48:23.107Z,51.67
2023-03-03T22:50:54.036Z,50.80
2023-03-03T22:53:21.983Z,52.03
2023-03-03T22:55:48.795Z,51.50
2023-03-03T22:58:21.232Z,47.57
2023-03-03T23:00:48.937Z,46.37
2023-03-03T23:03:16.495Z,73.07
2023-03-03T23:05:43.900Z,56.87
2023-03-03T23:08:15.084Z,56.10
2023-03-03T23:10:42.254Z,50.57
2023-03-03T23:13:10.416Z,57.30
2023-03-03T23:15:37.207Z,49.90
2023-03-03T23:18:04.282Z,42.37
2023-03-03T23:20:32.017Z,53.07
2023-03-03T23:22:59.331Z,50.60
2023-03-03T23:25:26.797Z,42.93
2023-03-03T23:27:53.616Z,37.87
2023-03-03T23:30:21.633Z,41.97
2023-03-03T23:32:49.161Z,54.80
2023-03-03T23:35:16.810Z,45.57
2023-03-03T23:37:44.875Z,43.37
2023-03-03T23:40:14.067Z,44.63
2023-03-03T23:42:40.982Z,46.03
2023-03-03T23:45:09.643Z,44.30
2023-03-03T23:47:36.906Z,43.33
2023-03-03T23:50:04.749Z,45.57
2023-03-03T23:52:31.562Z,46.97
2023-03-03T23:54:58.432Z,48.03
2023-03-03T23:57:25.303Z,42.27
2023-03-03T23:59:52.156Z,47.00
